createdAt,value
2022-09-22T00:01:32.522Z,11.50
2022-09-22T00:04:03.251Z,11.40
2022-09-22T00:06:34.178Z,11.40
2022-09-22T00:09:03.269Z,11.40
2022-09-22T00:11:35.986Z,11.40
2022-09-22T00:14:09.441Z,11.30
2022-09-22T00:16:48.286Z,11.30
2022-09-22T00:19:20.090Z,11.30
2022-09-22T00:21:48.550Z,11.30
2022-09-22T00:24:16.897Z,11.30
2022-09-22T00:26:44.172Z,11.30
2022-09-22T00:29:12.716Z,11.40
2022-09-22T00:31:41.804Z,11.30
2022-09-22T00:34:14.322Z,11.50
2022-09-22T00:36:41.391Z,11.30
2022-09-22T00:39:08.908Z,11.30
2022-09-22T00:41:40.481Z,11.20
2022-09-22T00:44:31.777Z,11.20
2022-09-22T00:47:01.302Z,11.20
2022-09-22T00:49:58.517Z,11.20
2022-09-22T00:52:39.703Z,11.10
2022-09-22T00:55:13.074Z,11.30
2022-09-22T00:57:41.982Z,11.00
2022-09-22T01:00:10.962Z,11.00
2022-09-22T01:02:38.090Z,11.00
2022-09-22T01:05:05.682Z,11.00
2022-09-22T01:07:33.057Z,11.00
2022-09-22T01:10:00.041Z,11.00
2022-09-22T01:12:30.724Z,11.00
2022-09-22T01:15:35.755Z,10.90
2022-09-22T01:18:17.944Z,10.90
2022-09-22T01:20:53.712Z,10.90
2022-09-22T01:23:50.975Z,10.80
2022-09-22T01:26:23.985Z,10.80
2022-09-22T01:29:03.492Z,10.80
2022-09-22T01:31:50.568Z,10.80
2022-09-22T01:34:23.093Z,10.80
2022-09-22T01:36:55.202Z,10.70
2022-09-22T01:39:28.881Z,10.70
2022-09-22T01:42:05.762Z,10.60
2022-09-22T01:44:55.315Z,10.70
2022-09-22T01:47:44.593Z,10.60
2022-09-22T01:50:23.494Z,10.60
2022-09-22T01:52:52.636Z,10.60
2022-09-22T01:55:42.543Z,10.60
2022-09-22T01:58:18.468Z,10.60
2022-09-22T02:00:53.338Z,10.60
2022-09-22T02:03:26.609Z,10.60
2022-09-22T02:05:58.311Z,10.60
2022-09-22T02:08:40.513Z,10.60
2022-09-22T02:11:18.418Z,10.60
2022-09-22T02:13:53.476Z,10.50
2022-09-22T02:16:23.551Z,10.50
2022-09-22T02:19:13.492Z,10.60
2022-09-22T02:21:43.830Z,10.50
2022-09-22T02:24:37.659Z,10.40
2022-09-22T02:27:13.419Z,10.40
2022-09-22T02:29:45.290Z,10.30
2022-09-22T02:32:16.208Z,10.30
2022-09-22T02:34:47.683Z,10.30
2022-09-22T02:37:36.116Z,10.30
2022-09-22T02:40:02.844Z,10.20
2022-09-22T02:42:31.704Z,10.30
2022-09-22T02:45:25.827Z,10.30
2022-09-22T02:47:57.118Z,10.30
2022-09-22T02:50:26.974Z,10.30
2022-09-22T02:53:14.665Z,10.30
2022-09-22T02:55:42.144Z,10.50
2022-09-22T02:58:10.880Z,10.30
2022-09-22T03:00:40.077Z,10.30
2022-09-22T03:03:06.933Z,10.30
2022-09-22T03:05:34.033Z,10.30
2022-09-22T03:08:00.917Z,10.30
2022-09-22T03:10:27.783Z,10.30
2022-09-22T03:13:15.608Z,10.30
2022-09-22T03:15:44.143Z,10.20
2022-09-22T03:18:11.130Z,10.20
2022-09-22T03:20:37.942Z,10.20
2022-09-22T03:23:04.895Z,10.20
2022-09-22T03:25:31.666Z,10.20
2022-09-22T03:27:58.495Z,10.20
2022-09-22T03:30:25.293Z,10.20
2022-09-22T03:32:52.114Z,10.20
2022-09-22T03:35:18.919Z,10.20
2022-09-22T03:37:46.335Z,10.20
2022-09-22T03:40:13.208Z,10.20
2022-09-22T03:42:40.061Z,10.10
2022-09-22T03:45:07.303Z,10.10
2022-09-22T03:47:34.691Z,10.10
2022-09-22T03:50:01.394Z,10.00
2022-09-22T03:52:28.144Z,10.10
2022-09-22T03:54:54.944Z,10.10
2022-09-22T03:57:21.663Z,10.10
2022-09-22T03:59:48.782Z,10.00
2022-09-22T04:02:15.562Z,10.00
2022-09-22T04:04:42.522Z,10.00
2022-09-22T04:07:09.282Z,9.90
2022-09-22T04:09:36.248Z,10.00
2022-09-22T04:12:04.484Z,10.00
2022-09-22T04:14:31.157Z,10.00
2022-09-22T04:16:57.905Z,10.00
2022-09-22T04:19:24.704Z,9.90
2022-09-22T04:21:56.889Z,10.00
2022-09-22T04:24:24.367Z,9.90
2022-09-22T04:27:08.632Z,9.90
2022-09-22T04:29:38.083Z,9.80
2022-09-22T04:32:05.406Z,9.80
2022-09-22T04:34:32.409Z,9.80
2022-09-22T04:36:59.315Z,9.80
2022-09-22T04:39:28.510Z,9.80
2022-09-22T04:41:55.563Z,9.80
2022-09-22T04:44:22.557Z,9.80
2022-09-22T04:46:50.206Z,9.70
2022-09-22T04:49:19.251Z,9.80
2022-09-22T04:51:46.072Z,9.70
2022-09-22T04:54:14.732Z,9.70
2022-09-22T04:56:44.652Z,9.70
2022-09-22T04:59:11.920Z,9.70
2022-09-22T05:01:39.089Z,9.70
2022-09-22T05:04:06.107Z,9.60
2022-09-22T05:06:32.864Z,9.60
2022-09-22T05:08:59.788Z,9.60
2022-09-22T05:11:26.518Z,9.60
2022-09-22T05:13:53.205Z,9.60
2022-09-22T05:16:20.007Z,9.60
2022-09-22T05:18:48.657Z,9.60
2022-09-22T05:21:17.726Z,9.60
2022-09-22T05:23:45.596Z,9.50
2022-09-22T05:26:12.434Z,9.50
2022-09-22T05:28:39.187Z,9.40
2022-09-22T05:31:06.415Z,9.30
2022-09-22T05:33:33.464Z,9.50
2022-09-22T05:36:00.341Z,9.50
2022-09-22T05:38:27.121Z,9.40
2022-09-22T05:40:53.911Z,9.40
2022-09-22T05:43:20.910Z,9.50
2022-09-22T05:45:47.875Z,9.50
2022-09-22T05:48:14.608Z,9.50
2022-09-22T05:50:43.133Z,9.50
2022-09-22T05:53:10.926Z,9.50
2022-09-22T05:55:39.377Z,9.50
2022-09-22T05:58:09.299Z,9.50
2022-09-22T06:00:36.679Z,9.50
2022-09-22T06:03:04.299Z,9.50
2022-09-22T06:05:31.492Z,9.60
2022-09-22T06:08:06.218Z,9.50
2022-09-22T06:10:35.145Z,9.70
2022-09-22T06:13:04.463Z,9.70
2022-09-22T06:15:33.762Z,9.70
2022-09-22T06:18:01.727Z,9.80
2022-09-22T06:20:29.181Z,9.80
2022-09-22T06:22:56.652Z,9.90
2022-09-22T06:25:23.569Z,9.90
2022-09-22T06:28:02.198Z,9.90
2022-09-22T06:30:30.828Z,10.00
2022-09-22T06:32:57.923Z,10.00
2022-09-22T06:35:24.692Z,10.00
2022-09-22T06:37:58.464Z,10.10
2022-09-22T06:40:25.595Z,10.20
2022-09-22T06:43:00.126Z,10.20
2022-09-22T06:45:27.222Z,10.30
2022-09-22T06:47:58.864Z,10.30
2022-09-22T06:50:31.114Z,10.40
2022-09-22T06:53:08.647Z,10.50
2022-09-22T06:55:35.982Z,10.60
2022-09-22T06:58:03.016Z,10.60
2022-09-22T07:00:32.611Z,10.80
2022-09-22T07:03:26.122Z,10.90
2022-09-22T07:06:04.008Z,11.00
2022-09-22T07:08:32.890Z,11.10
2022-09-22T07:11:07.947Z,11.30
2022-09-22T07:13:40.499Z,11.30
2022-09-22T07:16:19.984Z,11.40
2022-09-22T07:18:48.737Z,11.40
2022-09-22T07:21:21.402Z,11.50
2022-09-22T07:23:49.936Z,11.70
2022-09-22T07:26:23.721Z,11.80
2022-09-22T07:28:53.912Z,11.90
2022-09-22T07:31:26.298Z,12.10
2022-09-22T07:33:55.962Z,12.20
2022-09-22T07:36:26.130Z,12.30
2022-09-22T07:38:57.460Z,12.40
2022-09-22T07:41:29.592Z,12.50
2022-09-22T07:44:19.548Z,12.60
2022-09-22T07:46:47.006Z,12.80
2022-09-22T07:49:19.293Z,13.00
2022-09-22T07:51:46.207Z,13.10
2022-09-22T07:54:13.277Z,13.30
2022-09-22T07:56:42.933Z,13.50
2022-09-22T07:59:12.984Z,13.60
2022-09-22T08:01:47.601Z,13.70
2022-09-22T08:04:16.923Z,13.80
2022-09-22T08:06:45.435Z,14.00
2022-09-22T08:09:13.131Z,14.10
2022-09-22T08:11:48.612Z,14.30
2022-09-22T08:14:23.873Z,14.40
2022-09-22T08:16:51.839Z,14.60
2022-09-22T08:19:19.934Z,14.70
2022-09-22T08:21:49.965Z,14.90
2022-09-22T08:24:22.184Z,15.00
2022-09-22T08:26:52.089Z,15.20
2022-09-22T08:29:18.824Z,15.30
2022-09-22T08:31:47.665Z,15.40
2022-09-22T08:34:16.878Z,15.80
2022-09-22T08:36:46.160Z,15.70
2022-09-22T08:39:13.323Z,15.90
2022-09-22T08:41:49.310Z,16.00
2022-09-22T08:44:22.914Z,16.20
2022-09-22T08:46:49.705Z,16.40
2022-09-22T08:50:03.185Z,16.60
2022-09-22T08:52:40.534Z,16.70
2022-09-22T08:55:19.640Z,16.80
2022-09-22T08:58:07.164Z,16.90
2022-09-22T09:00:48.475Z,17.10
2022-09-22T09:03:22.785Z,17.20
2022-09-22T09:06:39.077Z,17.40
2022-09-22T09:09:11.915Z,17.60
2022-09-22T09:12:03.706Z,17.70
2022-09-22T09:14:39.299Z,17.90
2022-09-22T09:17:13.269Z,18.00
2022-09-22T09:19:43.656Z,18.50
2022-09-22T09:22:18.872Z,18.50
2022-09-22T09:27:40.777Z,18.60
2022-09-22T09:30:19.550Z,18.90
2022-09-22T09:33:06.031Z,19.10
2022-09-22T09:35:45.695Z,19.20
2022-09-22T09:38:15.540Z,19.30
2022-09-22T09:40:52.795Z,19.40
2022-09-22T09:43:21.371Z,19.50
2022-09-22T09:46:06.757Z,19.60
2022-09-22T09:48:40.817Z,19.60
2022-09-22T09:51:12.441Z,19.80
2022-09-22T09:53:44.869Z,20.00
2022-09-22T09:56:32.760Z,20.00
2022-09-22T09:59:20.739Z,19.90
2022-09-22T10:01:50.677Z,19.80
2022-09-22T10:04:37.867Z,19.90
2022-09-22T10:07:25.897Z,20.10
2022-09-22T10:09:54.643Z,20.20
2022-09-22T10:12:32.647Z,20.40
2022-09-22T10:15:02.624Z,20.30
2022-09-22T10:17:41.025Z,20.20
2022-09-22T10:20:29.991Z,20.20
2022-09-22T10:23:16.823Z,20.30
2022-09-22T10:25:43.570Z,20.50
2022-09-22T10:28:15.198Z,20.40
2022-09-22T10:30:43.636Z,20.20
2022-09-22T10:33:21.471Z,20.20
2022-09-22T10:36:09.454Z,20.20
2022-09-22T10:38:41.452Z,20.20
2022-09-22T10:41:23.970Z,20.20
2022-09-22T10:43:55.798Z,20.20
2022-09-22T10:46:38.022Z,20.20
2022-09-22T10:49:31.132Z,20.00
2022-09-22T10:52:09.441Z,19.90
2022-09-22T10:54:42.758Z,19.90
2022-09-22T10:57:24.790Z,19.80
2022-09-22T11:00:07.934Z,19.80
2022-09-22T11:02:40.584Z,19.90
2022-09-22T11:05:50.321Z,20.00
2022-09-22T11:08:37.863Z,20.10
2022-09-22T11:11:23.452Z,20.20
2022-09-22T11:14:00.447Z,20.40
2022-09-22T11:16:48.100Z,20.40
2022-09-22T11:19:21.034Z,20.30
2022-09-22T11:22:05.125Z,20.30
2022-09-22T11:24:48.528Z,20.30
2022-09-22T11:27:41.686Z,20.20
2022-09-22T11:30:23.238Z,20.20
2022-09-22T11:32:59.875Z,20.10
2022-09-22T11:35:35.409Z,20.10
2022-09-22T11:38:12.226Z,20.00
2022-09-22T11:43:48.999Z,20.30
2022-09-22T11:46:23.209Z,20.10
2022-09-22T11:49:15.172Z,20.00
2022-09-22T11:52:20.335Z,20.10
2022-09-22T11:55:15.522Z,20.10
2022-09-22T11:57:47.799Z,20.20
2022-09-22T12:00:20.564Z,20.20
2022-09-22T12:02:54.843Z,20.20
2022-09-22T12:05:46.751Z,20.20
2022-09-22T12:08:23.559Z,20.30
2022-09-22T12:10:51.938Z,20.40
2022-09-22T12:13:25.504Z,20.60
2022-09-22T12:15:58.808Z,20.50
2022-09-22T12:18:36.178Z,20.40
2022-09-22T12:21:27.971Z,20.30
2022-09-22T12:23:57.701Z,20.30
2022-09-22T12:26:31.906Z,20.30
2022-09-22T12:29:01.259Z,20.30
2022-09-22T12:31:40.266Z,20.30
2022-09-22T12:34:20.132Z,20.40
2022-09-22T12:36:48.783Z,20.30
2022-09-22T12:39:20.153Z,20.30
2022-09-22T12:41:50.040Z,20.40
2022-09-22T12:44:21.019Z,20.50
2022-09-22T12:46:49.165Z,20.50
2022-09-22T12:49:22.917Z,20.60
2022-09-22T12:51:50.952Z,20.60
2022-09-22T12:54:23.941Z,20.70
2022-09-22T12:57:01.868Z,21.10
2022-09-22T12:59:38.124Z,21.10
2022-09-22T13:02:17.533Z,21.00
2022-09-22T13:05:00.054Z,21.00
2022-09-22T13:07:45.313Z,20.90
2022-09-22T13:10:22.005Z,20.90
2022-09-22T13:13:06.915Z,21.00
2022-09-22T13:15:49.970Z,20.90
2022-09-22T13:18:31.887Z,21.00
2022-09-22T13:21:00.111Z,21.10
2022-09-22T13:23:27.648Z,21.10
2022-09-22T13:25:54.533Z,21.10
2022-09-22T13:28:25.053Z,21.10
2022-09-22T13:31:14.733Z,21.30
2022-09-22T13:33:41.963Z,21.60
2022-09-22T13:36:16.066Z,22.20
2022-09-22T13:41:19.445Z,22.70
2022-09-22T13:43:50.338Z,24.00
2022-09-22T13:46:24.057Z,24.70
2022-09-22T13:48:54.607Z,25.00
2022-09-22T13:51:21.796Z,25.10
2022-09-22T13:53:55.276Z,25.10
2022-09-22T13:56:23.412Z,25.50
2022-09-22T13:58:52.799Z,25.80
2022-09-22T14:01:24.754Z,26.00
2022-09-22T14:03:53.255Z,26.10
2022-09-22T14:06:30.335Z,26.50
2022-09-22T14:08:58.112Z,26.80
2022-09-22T14:11:29.530Z,27.00
2022-09-22T14:14:01.718Z,27.40
2022-09-22T14:16:32.009Z,27.70
2022-09-22T14:19:14.373Z,27.90
2022-09-22T14:21:50.109Z,27.70
2022-09-22T14:24:17.817Z,27.70
2022-09-22T14:26:52.318Z,28.00
2022-09-22T14:29:25.319Z,28.20
2022-09-22T14:32:13.744Z,28.20
2022-09-22T14:34:45.665Z,28.20
2022-09-22T14:37:20.289Z,28.00
2022-09-22T14:39:48.038Z,28.10
2022-09-22T14:42:23.146Z,28.20
2022-09-22T14:44:51.560Z,28.00
2022-09-22T14:47:27.888Z,27.60
2022-09-22T14:50:20.478Z,27.60
2022-09-22T14:53:31.577Z,27.50
2022-09-22T14:56:15.383Z,27.70
2022-09-22T14:58:48.877Z,27.80
2022-09-22T15:01:52.997Z,27.80
2022-09-22T15:04:24.983Z,27.80
2022-09-22T15:06:56.218Z,27.70
2022-09-22T15:09:22.986Z,27.90
2022-09-22T15:11:53.105Z,28.10
2022-09-22T15:14:40.511Z,28.10
2022-09-22T15:18:00.978Z,27.70
2022-09-22T15:20:44.006Z,27.30
2022-09-22T15:23:25.825Z,27.20
2022-09-22T15:25:53.822Z,27.30
2022-09-22T15:28:26.835Z,27.20
2022-09-22T15:30:53.733Z,27.40
2022-09-22T15:33:21.444Z,27.30
2022-09-22T15:35:53.009Z,27.30
2022-09-22T15:38:29.344Z,27.10
2022-09-22T15:40:57.331Z,26.90
2022-09-22T15:43:30.555Z,26.70
2022-09-22T15:46:03.620Z,25.80
2022-09-22T15:48:36.841Z,24.50
2022-09-22T15:51:07.297Z,23.80
2022-09-22T15:53:35.210Z,23.10
2022-09-22T15:56:04.920Z,22.50
2022-09-22T15:58:39.580Z,22.10
2022-09-22T16:01:07.869Z,21.70
2022-09-22T16:03:41.000Z,21.40
2022-09-22T16:06:12.103Z,21.10
2022-09-22T16:08:42.362Z,20.80
2022-09-22T16:11:19.559Z,20.60
2022-09-22T16:13:48.367Z,20.40
2022-09-22T16:16:18.107Z,20.20
2022-09-22T16:18:45.865Z,20.10
2022-09-22T16:21:26.135Z,20.00
2022-09-22T16:23:59.425Z,19.80
2022-09-22T16:26:29.402Z,19.80
2022-09-22T16:28:56.485Z,19.70
2022-09-22T16:31:24.391Z,19.60
2022-09-22T16:33:55.172Z,19.40
2022-09-22T16:36:23.835Z,19.40
2022-09-22T16:38:50.579Z,19.40
2022-09-22T16:41:19.919Z,19.40
2022-09-22T16:43:47.870Z,19.20
2022-09-22T16:46:28.169Z,19.10
2022-09-22T16:49:12.741Z,19.10
2022-09-22T16:51:42.291Z,18.90
2022-09-22T16:54:14.506Z,19.00
2022-09-22T16:56:46.010Z,19.00
2022-09-22T16:59:17.620Z,18.80
2022-09-22T17:01:44.855Z,18.80
2022-09-22T17:04:15.693Z,18.70
2022-09-22T17:06:43.741Z,18.60
2022-09-22T17:09:18.288Z,18.50
2022-09-22T17:11:47.786Z,18.50
2022-09-22T17:14:16.977Z,18.40
2022-09-22T17:16:52.879Z,18.40
2022-09-22T17:19:22.507Z,18.30
2022-09-22T17:21:55.127Z,18.10
2022-09-22T17:24:23.268Z,18.10
2022-09-22T17:26:55.093Z,18.10
2022-09-22T17:29:26.365Z,18.00
2022-09-22T17:31:59.407Z,17.90
2022-09-22T17:34:28.595Z,17.80
2022-09-22T17:36:56.424Z,17.70
2022-09-22T17:39:24.542Z,17.70
2022-09-22T17:41:51.463Z,17.60
2022-09-22T17:44:21.517Z,17.60
2022-09-22T17:47:11.777Z,17.40
2022-09-22T17:49:57.827Z,17.40
2022-09-22T17:52:43.834Z,17.50
2022-09-22T17:55:20.830Z,17.30
2022-09-22T17:57:48.099Z,17.30
2022-09-22T18:00:20.962Z,17.30
2022-09-22T18:02:49.649Z,17.20
2022-09-22T18:05:19.675Z,17.10
2022-09-22T18:07:51.670Z,16.90
2022-09-22T18:10:20.839Z,16.90
2022-09-22T18:12:47.708Z,16.80
2022-09-22T18:15:15.040Z,16.80
2022-09-22T18:17:43.022Z,16.70
2022-09-22T18:20:15.516Z,16.60
2022-09-22T18:22:47.474Z,16.60
2022-09-22T18:25:15.745Z,16.60
2022-09-22T18:27:42.476Z,16.50
2022-09-22T18:30:14.160Z,16.50
2022-09-22T18:32:42.737Z,16.50
2022-09-22T18:35:09.814Z,16.50
2022-09-22T18:37:38.592Z,16.40
2022-09-22T18:40:10.251Z,16.40
2022-09-22T18:42:37.277Z,16.40
2022-09-22T18:45:04.732Z,16.30
2022-09-22T18:47:31.499Z,16.30
2022-09-22T18:49:59.175Z,16.30
2022-09-22T18:52:26.061Z,16.30
2022-09-22T18:54:54.107Z,16.20
2022-09-22T18:57:22.612Z,16.20
2022-09-22T18:59:50.866Z,16.20
2022-09-22T19:02:22.493Z,16.20
2022-09-22T19:04:51.153Z,16.20
2022-09-22T19:07:40.606Z,16.10
2022-09-22T19:10:21.707Z,16.00
2022-09-22T19:12:49.484Z,16.00
2022-09-22T19:15:19.080Z,16.00
2022-09-22T19:17:49.137Z,16.00
2022-09-22T19:20:22.798Z,15.90
2022-09-22T19:22:50.411Z,15.90
2022-09-22T19:25:19.995Z,15.90
2022-09-22T19:27:47.377Z,15.90
2022-09-22T19:30:14.319Z,15.80
2022-09-22T19:32:41.166Z,15.70
2022-09-22T19:35:09.026Z,15.80
2022-09-22T19:37:35.977Z,15.70
2022-09-22T19:40:04.688Z,15.60
2022-09-22T19:42:31.947Z,15.50
2022-09-22T19:45:04.013Z,15.50
2022-09-22T19:47:31.299Z,15.60
2022-09-22T19:49:58.839Z,15.50
2022-09-22T19:52:25.690Z,15.40
2022-09-22T19:55:02.308Z,15.40
2022-09-22T19:57:29.412Z,15.40
2022-09-22T19:59:56.792Z,15.30
2022-09-22T20:02:24.737Z,15.30
2022-09-22T20:04:55.951Z,15.30
2022-09-22T20:07:23.790Z,15.30
2022-09-22T20:09:56.208Z,15.20
2022-09-22T20:12:23.507Z,15.20
2022-09-22T20:14:51.380Z,15.20
2022-09-22T20:17:18.157Z,15.10
2022-09-22T20:19:45.031Z,15.00
2022-09-22T20:22:27.739Z,15.10
2022-09-22T20:24:57.505Z,15.00
2022-09-22T20:27:35.181Z,15.00
2022-09-22T20:30:04.720Z,14.80
2022-09-22T20:32:32.195Z,14.90
2022-09-22T20:34:59.462Z,14.90
2022-09-22T20:37:28.471Z,14.80
2022-09-22T20:39:56.364Z,14.80
2022-09-22T20:42:24.052Z,14.80
2022-09-22T20:44:51.031Z,14.80
2022-09-22T20:47:19.936Z,14.60
2022-09-22T20:49:50.827Z,14.70
2022-09-22T20:52:22.347Z,14.70
2022-09-22T20:54:49.154Z,14.70
2022-09-22T20:57:16.741Z,14.70
2022-09-22T20:59:45.451Z,14.60
2022-09-22T21:02:13.591Z,14.60
2022-09-22T21:04:41.050Z,14.60
2022-09-22T21:07:08.443Z,14.60
2022-09-22T21:09:53.905Z,14.60
2022-09-22T21:12:20.722Z,14.60
2022-09-22T21:14:48.751Z,14.60
2022-09-22T21:17:17.307Z,14.50
2022-09-22T21:19:46.329Z,14.50
2022-09-22T21:22:13.983Z,14.40
2022-09-22T21:24:43.011Z,14.40
2022-09-22T21:27:10.534Z,14.30
2022-09-22T21:29:37.351Z,14.30
2022-09-22T21:32:04.260Z,14.40
2022-09-22T21:34:31.784Z,14.30
2022-09-22T21:36:58.476Z,14.30
2022-09-22T21:39:25.282Z,14.30
2022-09-22T21:41:52.156Z,14.30
2022-09-22T21:44:20.304Z,14.30
2022-09-22T21:46:47.752Z,14.20
2022-09-22T21:49:14.571Z,14.20
2022-09-22T21:51:44.300Z,14.20
2022-09-22T21:54:17.639Z,14.20
2022-09-22T21:56:46.066Z,14.10
2022-09-22T21:59:13.752Z,14.10
2022-09-22T22:01:41.815Z,14.10
2022-09-22T22:04:10.249Z,14.10
2022-09-22T22:06:40.816Z,14.00
2022-09-22T22:09:15.118Z,14.00
2022-09-22T22:11:50.465Z,14.00
2022-09-22T22:14:19.371Z,14.00
2022-09-22T22:16:51.683Z,14.00
2022-09-22T22:19:21.163Z,13.90
2022-09-22T22:21:50.625Z,14.00
2022-09-22T22:24:40.561Z,14.00
2022-09-22T22:27:10.333Z,14.00
2022-09-22T22:29:40.908Z,13.90
2022-09-22T22:32:09.394Z,13.90
2022-09-22T22:34:36.803Z,13.90
2022-09-22T22:37:09.379Z,13.80
2022-09-22T22:39:36.295Z,13.80
2022-09-22T22:42:03.423Z,13.80
2022-09-22T22:44:30.378Z,13.80
2022-09-22T22:46:57.095Z,13.70
2022-09-22T22:49:24.060Z,13.80
2022-09-22T22:51:52.318Z,13.80
2022-09-22T22:54:19.193Z,13.80
2022-09-22T22:56:50.738Z,13.90
2022-09-22T22:59:18.384Z,13.90
2022-09-22T23:01:45.953Z,13.80
2022-09-22T23:04:14.013Z,13.80
2022-09-22T23:06:45.222Z,13.70
2022-09-22T23:09:16.346Z,13.70
2022-09-22T23:11:45.753Z,13.90
2022-09-22T23:14:13.005Z,13.70
2022-09-22T23:16:49.478Z,13.70
2022-09-22T23:19:18.042Z,13.70
2022-09-22T23:21:45.725Z,13.80
2022-09-22T23:24:18.806Z,13.60
2022-09-22T23:26:46.218Z,13.60
2022-09-22T23:29:13.286Z,13.50
2022-09-22T23:31:40.104Z,13.50
2022-09-22T23:34:06.873Z,13.50
2022-09-22T23:36:33.806Z,13.50
2022-09-22T23:39:03.421Z,13.40
2022-09-22T23:41:36.360Z,13.40
2022-09-22T23:44:05.139Z,13.40
2022-09-22T23:46:31.982Z,13.40
2022-09-22T23:48:59.919Z,13.50
2022-09-22T23:51:27.339Z,13.70
2022-09-22T23:53:54.197Z,13.50
2022-09-22T23:56:20.956Z,13.30
2022-09-22T23:58:47.962Z,13.30
